Hangaard, Minnesota
Current Conditions -  °F | °C
As of 5:15 AM on Wednesday 26 Nov 2014 (Local Time) from KFSE Reporting Station
Light Snow Light Snow  
Wind Chill: -10°   Ceiling: 5000
Heat Index:   Visibility: 7mi
Dew Point:   Wind: 14mph
Humidity: 85%   Direction: 350°N
Pressure: 30.19"   Gusts: NA
Location:  47.8469°N, 95.4815°W
Report Text: KFSE 261115Z AUTO 35012KT 7SM -SN SCT006 BKN050 OVC100 M14/M16 A3019 RMK AO2
Loading
Personal Weather Stations






























Interactive Weather Map New forecast layout! Learn more

10-Day Weather Forecast

Advertisements
Track Severe Weather on mobile